CheckWX is a tool to help pilots better visualize weather data.  It is not intended as a substitute for an official pre-flight weather briefing.

16:01:20 UTC

KPUC METAR
Carbon County Regional / Buck Davis Field Airport
Price, Utah, USA
Current

8 mins ago

KPUC 261553Z AUTO 12003KT 10SM CLR 14/M02 A2991 RMK AO2 SLP096 T01441017
Observed
May-26 @ 15:53 UTC
Wind
  • 120° at 3 KTS
Visibility
10 SM
Flight Rules
VFR
Cloud Levels
  • Clear skies
Temperature
14°C / 57°F
Dewpoint
-2°C / 28°F
Humidity
33%
Altimeter
29.91" Hg
Pressure
1012.92 hPa
Previous

1 hour ago

KPUC 261453Z AUTO 06005KT 10SM CLR 13/M01 A2991 RMK AO2 SLP098 T01281006 51008
Observed
May-26 @ 14:53 UTC
Wind
  • 060° at 5 KTS
Visibility
10 SM
Flight Rules
VFR
Cloud Levels
  • Clear skies
Temperature
13°C / 55°F
Dewpoint
-1°C / 30°F
Humidity
38%
Altimeter
29.91" Hg
Pressure
1012.92 hPa
Previous

2 hours ago

KPUC 261353Z AUTO 00000KT 10SM CLR 09/02 A2991 RMK AO2 SLP093 T00940022
Observed
May-26 @ 13:53 UTC
Visibility
10 SM
Flight Rules
VFR
Cloud Levels
  • Clear skies
Temperature
C / 48°F
Dewpoint
C / 36°F
Humidity
62%
Altimeter
29.91" Hg
Pressure
1012.92 hPa